createdAt,value
2022-09-22T00:01:32.282Z,11.70
2022-09-22T00:04:06.093Z,11.70
2022-09-22T00:06:39.021Z,11.60
2022-09-22T00:09:12.788Z,11.60
2022-09-22T00:11:47.616Z,11.60
2022-09-22T00:14:23.231Z,11.60
2022-09-22T00:17:00.534Z,11.50
2022-09-22T00:19:35.630Z,11.60
2022-09-22T00:22:04.961Z,11.50
2022-09-22T00:24:33.622Z,11.50
2022-09-22T00:27:00.933Z,11.40
2022-09-22T00:29:30.876Z,11.40
2022-09-22T00:31:59.625Z,11.40
2022-09-22T00:34:29.549Z,11.30
2022-09-22T00:36:56.637Z,11.30
2022-09-22T00:39:23.930Z,11.30
2022-09-22T00:41:52.975Z,11.20
2022-09-22T00:44:43.828Z,11.20
2022-09-22T00:47:39.715Z,11.20
2022-09-22T00:50:24.285Z,11.20
2022-09-22T00:52:59.725Z,11.10
2022-09-22T00:55:45.881Z,11.10
2022-09-22T00:58:20.799Z,11.10
2022-09-22T01:00:48.114Z,11.10
2022-09-22T01:03:24.038Z,11.00
2022-09-22T01:06:01.999Z,11.00
2022-09-22T01:08:31.635Z,11.00
2022-09-22T01:10:59.722Z,11.00
2022-09-22T01:13:57.970Z,10.90
2022-09-22T01:16:59.595Z,10.90
2022-09-22T01:20:26.414Z,10.90
2022-09-22T01:23:40.139Z,10.90
2022-09-22T01:26:16.023Z,10.80
2022-09-22T01:29:32.378Z,10.80
2022-09-22T01:32:07.487Z,10.80
2022-09-22T01:34:56.336Z,10.70
2022-09-22T01:37:40.362Z,10.70
2022-09-22T01:40:21.785Z,10.70
2022-09-22T01:43:20.967Z,10.70
2022-09-22T01:45:48.951Z,10.70
2022-09-22T01:48:27.966Z,10.70
2022-09-22T01:51:09.267Z,10.70
2022-09-22T01:53:47.421Z,10.60
2022-09-22T01:56:18.328Z,10.60
2022-09-22T01:58:58.381Z,10.60
2022-09-22T02:01:38.324Z,10.60
2022-09-22T02:04:20.807Z,10.60
2022-09-22T02:06:56.223Z,10.60
2022-09-22T02:09:29.997Z,10.60
2022-09-22T02:11:59.109Z,10.50
2022-09-22T02:14:27.600Z,10.50
2022-09-22T02:16:55.312Z,10.50
2022-09-22T02:19:34.136Z,10.50
2022-09-22T02:22:01.291Z,10.50
2022-09-22T02:24:44.476Z,10.50
2022-09-22T02:27:27.512Z,10.50
2022-09-22T02:30:11.223Z,10.40
2022-09-22T02:32:45.743Z,10.40
2022-09-22T02:35:14.091Z,10.40
2022-09-22T02:37:50.853Z,10.40
2022-09-22T02:40:36.456Z,10.40
2022-09-22T02:43:40.750Z,10.30
2022-09-22T02:46:41.596Z,10.30
2022-09-22T02:49:16.151Z,10.20
2022-09-22T02:51:46.652Z,10.20
2022-09-22T02:54:15.080Z,10.20
2022-09-22T02:56:43.266Z,10.20
2022-09-22T02:59:10.615Z,10.10
2022-09-22T03:01:38.535Z,10.10
2022-09-22T03:04:06.302Z,10.10
2022-09-22T03:06:33.877Z,10.10
2022-09-22T03:09:01.004Z,10.10
2022-09-22T03:11:28.063Z,10.10
2022-09-22T03:13:55.301Z,10.00
2022-09-22T03:16:22.424Z,10.00
2022-09-22T03:18:49.560Z,10.00
2022-09-22T03:21:16.617Z,10.00
2022-09-22T03:23:43.742Z,10.00
2022-09-22T03:26:10.890Z,10.00
2022-09-22T03:28:38.014Z,10.00
2022-09-22T03:31:05.653Z,10.00
2022-09-22T03:33:32.832Z,10.00
2022-09-22T03:35:59.963Z,10.00
2022-09-22T03:38:27.159Z,9.90
2022-09-22T03:40:54.432Z,9.90
2022-09-22T03:43:21.817Z,9.90
2022-09-22T03:45:48.920Z,9.90
2022-09-22T03:48:16.049Z,9.90
2022-09-22T03:50:43.197Z,9.90
2022-09-22T03:53:10.270Z,9.80
2022-09-22T03:55:37.399Z,9.80
2022-09-22T03:58:04.615Z,9.80
2022-09-22T04:00:31.719Z,9.80
2022-09-22T04:02:59.165Z,9.80
2022-09-22T04:05:26.967Z,9.80
2022-09-22T04:07:54.108Z,9.70
2022-09-22T04:10:21.703Z,9.70
2022-09-22T04:12:49.239Z,9.70
2022-09-22T04:15:16.462Z,9.60
2022-09-22T04:17:46.396Z,9.60
2022-09-22T04:20:13.609Z,9.60
2022-09-22T04:22:40.867Z,9.60
2022-09-22T04:25:09.214Z,9.60
2022-09-22T04:27:36.305Z,9.60
2022-09-22T04:30:06.021Z,9.60
2022-09-22T04:32:33.185Z,9.50
2022-09-22T04:35:00.362Z,9.50
2022-09-22T04:37:27.721Z,9.50
2022-09-22T04:39:55.605Z,9.50
2022-09-22T04:42:22.890Z,9.50
2022-09-22T04:44:50.085Z,9.50
2022-09-22T04:47:17.245Z,9.50
2022-09-22T04:49:44.777Z,9.40
2022-09-22T04:52:12.037Z,9.40
2022-09-22T04:54:39.170Z,9.40
2022-09-22T04:57:06.455Z,9.40
2022-09-22T04:59:35.054Z,9.40
2022-09-22T05:02:02.158Z,9.40
2022-09-22T05:04:30.062Z,9.30
2022-09-22T05:06:57.140Z,9.30
2022-09-22T05:09:24.239Z,9.40
2022-09-22T05:11:51.504Z,9.30
2022-09-22T05:14:22.762Z,9.30
2022-09-22T05:17:12.656Z,9.30
2022-09-22T05:19:39.666Z,9.30
2022-09-22T05:22:07.597Z,9.30
2022-09-22T05:24:34.727Z,9.30
2022-09-22T05:27:02.010Z,9.30
2022-09-22T05:29:29.827Z,9.30
2022-09-22T05:31:57.046Z,9.30
2022-09-22T05:34:24.399Z,9.30
2022-09-22T05:36:51.550Z,9.30
2022-09-22T05:39:18.735Z,9.30
2022-09-22T05:41:45.809Z,9.30
2022-09-22T05:44:12.993Z,9.30
2022-09-22T05:46:40.182Z,9.30
2022-09-22T05:49:07.390Z,9.30
2022-09-22T05:51:34.513Z,9.30
2022-09-22T05:54:01.724Z,9.30
2022-09-22T05:56:30.701Z,9.40
2022-09-22T05:58:58.128Z,9.40
2022-09-22T06:01:25.449Z,9.40
2022-09-22T06:03:52.616Z,9.40
2022-09-22T06:06:19.814Z,9.40
2022-09-22T06:08:49.136Z,9.50
2022-09-22T06:11:16.530Z,9.50
2022-09-22T06:13:44.489Z,9.50
2022-09-22T06:16:11.583Z,9.60
2022-09-22T06:18:38.751Z,9.60
2022-09-22T06:21:07.341Z,9.70
2022-09-22T06:23:34.511Z,9.70
2022-09-22T06:26:01.723Z,9.70
2022-09-22T06:28:29.004Z,9.80
2022-09-22T06:31:00.710Z,9.90
2022-09-22T06:33:29.323Z,10.00
2022-09-22T06:35:58.319Z,10.00
2022-09-22T06:38:25.720Z,10.10
2022-09-22T06:40:52.885Z,10.20
2022-09-22T06:43:24.087Z,10.30
2022-09-22T06:45:54.173Z,10.40
2022-09-22T06:48:24.037Z,10.40
2022-09-22T06:50:55.140Z,10.60
2022-09-22T06:53:25.219Z,10.70
2022-09-22T06:55:54.545Z,10.70
2022-09-22T06:58:22.457Z,10.80
2022-09-22T07:00:50.727Z,10.90
2022-09-22T07:03:26.603Z,11.10
2022-09-22T07:05:55.896Z,11.10
2022-09-22T07:08:24.976Z,11.30
2022-09-22T07:10:57.556Z,11.30
2022-09-22T07:13:26.142Z,11.50
2022-09-22T07:15:55.526Z,11.60
2022-09-22T07:18:22.647Z,11.70
2022-09-22T07:20:50.292Z,11.80
2022-09-22T07:23:21.285Z,11.90
2022-09-22T07:26:01.050Z,12.00
2022-09-22T07:28:29.798Z,12.10
2022-09-22T07:31:03.859Z,12.10
2022-09-22T07:33:31.173Z,12.30
2022-09-22T07:36:15.919Z,12.40
2022-09-22T07:38:46.688Z,12.50
2022-09-22T07:41:21.000Z,12.60
2022-09-22T07:43:56.466Z,12.70
2022-09-22T07:46:24.348Z,12.80
2022-09-22T07:48:51.660Z,12.90
2022-09-22T07:51:21.928Z,13.00
2022-09-22T07:54:09.605Z,13.10
2022-09-22T07:56:43.683Z,13.20
2022-09-22T07:59:13.874Z,13.30
2022-09-22T08:01:47.783Z,13.40
2022-09-22T08:04:21.586Z,13.50
2022-09-22T08:06:55.828Z,13.70
2022-09-22T08:09:25.385Z,13.80
2022-09-22T08:11:53.418Z,13.90
2022-09-22T08:14:26.015Z,14.00
2022-09-22T08:16:54.202Z,14.10
2022-09-22T08:19:24.183Z,14.20
2022-09-22T08:21:54.564Z,14.40
2022-09-22T08:24:23.822Z,14.40
2022-09-22T08:26:55.987Z,14.60
2022-09-22T08:29:24.540Z,14.70
2022-09-22T08:31:52.004Z,14.80
2022-09-22T08:34:19.227Z,14.90
2022-09-22T08:36:48.850Z,15.10
2022-09-22T08:39:18.310Z,15.20
2022-09-22T08:41:59.893Z,15.30
2022-09-22T08:44:37.600Z,15.40
2022-09-22T08:47:05.805Z,15.50
2022-09-22T08:50:07.008Z,15.60
2022-09-22T08:52:53.492Z,15.80
2022-09-22T08:55:25.148Z,15.90
2022-09-22T08:58:23.817Z,16.00
2022-09-22T09:01:13.964Z,16.20
2022-09-22T09:04:26.489Z,16.30
2022-09-22T09:07:01.366Z,16.50
2022-09-22T09:09:54.664Z,16.60
2022-09-22T09:12:57.398Z,16.80
2022-09-22T09:16:02.722Z,16.90
2022-09-22T09:18:37.279Z,17.00
2022-09-22T09:21:13.202Z,17.10
2022-09-22T09:26:36.802Z,17.40
2022-09-22T09:29:18.298Z,17.60
2022-09-22T09:31:53.742Z,17.80
2022-09-22T09:34:28.989Z,18.20
2022-09-22T09:37:10.443Z,18.70
2022-09-22T09:39:40.693Z,19.30
2022-09-22T09:42:31.820Z,20.00
2022-09-22T09:45:02.843Z,20.70
2022-09-22T09:48:14.921Z,21.30
2022-09-22T09:50:42.152Z,22.00
2022-09-22T09:53:41.581Z,22.60
2022-09-22T09:56:29.823Z,23.20
2022-09-22T09:59:21.005Z,23.80
2022-09-22T10:01:51.374Z,24.40
2022-09-22T10:04:35.476Z,24.90
2022-09-22T10:07:16.853Z,25.40
2022-09-22T10:09:45.728Z,25.80
2022-09-22T10:12:24.094Z,26.10
2022-09-22T10:14:54.667Z,26.40
2022-09-22T10:17:30.623Z,26.70
2022-09-22T10:20:24.315Z,27.10
2022-09-22T10:22:51.606Z,27.40
2022-09-22T10:25:34.193Z,27.70
2022-09-22T10:28:14.640Z,27.90
2022-09-22T10:30:43.833Z,28.20
2022-09-22T10:33:22.304Z,28.40
2022-09-22T10:36:09.240Z,28.40
2022-09-22T10:38:43.325Z,28.50
2022-09-22T10:41:37.543Z,28.70
2022-09-22T10:44:38.179Z,28.70
2022-09-22T10:47:39.717Z,28.80
2022-09-22T10:50:47.720Z,28.80
2022-09-22T10:53:39.637Z,28.90
2022-09-22T10:56:33.870Z,28.90
2022-09-22T10:59:34.504Z,29.00
2022-09-22T11:02:32.128Z,29.00
2022-09-22T11:05:56.367Z,29.00
2022-09-22T11:08:42.633Z,28.80
2022-09-22T11:11:48.953Z,28.70
2022-09-22T11:14:46.880Z,28.50
2022-09-22T11:17:57.017Z,28.20
2022-09-22T11:20:38.876Z,27.80
2022-09-22T11:23:57.310Z,27.40
2022-09-22T11:26:59.678Z,27.10
2022-09-22T11:29:41.777Z,26.80
2022-09-22T11:32:29.729Z,26.60
2022-09-22T11:35:24.010Z,26.30
2022-09-22T11:38:33.700Z,26.00
2022-09-22T11:41:45.335Z,25.90
2022-09-22T11:44:38.007Z,25.80
2022-09-22T11:47:56.254Z,25.80
2022-09-22T11:51:10.458Z,26.10
2022-09-22T11:54:50.107Z,26.40
2022-09-22T11:57:28.098Z,27.00
2022-09-22T12:00:05.768Z,27.40
2022-09-22T12:02:47.215Z,27.70
2022-09-22T12:05:46.891Z,28.00
2022-09-22T12:08:32.666Z,28.20
2022-09-22T12:11:01.846Z,28.50
2022-09-22T12:13:33.001Z,28.80
2022-09-22T12:16:25.771Z,28.90
2022-09-22T12:19:15.979Z,29.10
2022-09-22T12:22:21.718Z,29.20
2022-09-22T12:24:50.061Z,29.30
2022-09-22T12:27:30.233Z,29.30
2022-09-22T12:30:10.044Z,29.00
2022-09-22T12:32:43.168Z,28.90
2022-09-22T12:35:31.178Z,28.80
2022-09-22T12:38:02.650Z,28.90
2022-09-22T12:40:38.069Z,29.20
2022-09-22T12:43:06.378Z,29.40
2022-09-22T12:45:41.046Z,29.50
2022-09-22T12:48:35.918Z,29.70
2022-09-22T12:51:25.534Z,29.80
2022-09-22T12:54:21.936Z,30.00
2022-09-22T12:57:21.363Z,30.10
2022-09-22T13:00:20.955Z,30.30
2022-09-22T13:02:49.919Z,30.50
2022-09-22T13:05:26.091Z,30.60
2022-09-22T13:07:55.921Z,30.80
2022-09-22T13:10:23.088Z,30.90
2022-09-22T13:13:09.570Z,31.00
2022-09-22T13:15:49.581Z,31.10
2022-09-22T13:18:58.794Z,31.10
2022-09-22T13:21:32.605Z,31.10
2022-09-22T13:24:06.401Z,31.10
2022-09-22T13:26:41.004Z,31.10
2022-09-22T13:29:19.859Z,31.10
2022-09-22T13:31:54.638Z,31.10
2022-09-22T13:34:24.398Z,31.20
2022-09-22T13:37:03.030Z,31.20
2022-09-22T13:39:44.801Z,31.20
2022-09-22T13:42:32.533Z,31.20
2022-09-22T13:45:13.843Z,31.30
2022-09-22T13:47:43.404Z,31.30
2022-09-22T13:50:22.550Z,31.30
2022-09-22T13:52:54.140Z,31.30
2022-09-22T13:55:37.455Z,31.30
2022-09-22T13:58:09.121Z,31.20
2022-09-22T14:01:12.487Z,31.10
2022-09-22T14:04:44.472Z,31.00
2022-09-22T14:07:45.029Z,31.00
2022-09-22T14:10:25.154Z,31.10
2022-09-22T14:12:53.908Z,31.20
2022-09-22T14:15:45.026Z,31.20
2022-09-22T14:18:29.024Z,31.30
2022-09-22T14:20:58.366Z,31.30
2022-09-22T14:23:34.341Z,31.40
2022-09-22T14:26:27.703Z,31.40
2022-09-22T14:28:58.560Z,31.50
2022-09-22T14:31:33.322Z,31.60
2022-09-22T14:34:05.192Z,31.70
2022-09-22T14:36:32.754Z,31.70
2022-09-22T14:39:10.265Z,31.70
2022-09-22T14:41:40.571Z,31.70
2022-09-22T14:44:53.270Z,31.70
2022-09-22T14:48:20.371Z,31.60
2022-09-22T14:51:16.363Z,31.60
2022-09-22T14:53:51.230Z,31.60
2022-09-22T14:56:45.372Z,31.60
2022-09-22T15:00:02.348Z,31.50
2022-09-22T15:02:44.616Z,31.40
2022-09-22T15:05:34.902Z,31.30
2022-09-22T15:08:14.504Z,31.30
2022-09-22T15:10:56.627Z,31.30
2022-09-22T15:13:41.959Z,31.30
2022-09-22T15:16:34.156Z,31.40
2022-09-22T15:19:01.568Z,31.40
2022-09-22T15:21:30.063Z,31.40
2022-09-22T15:24:00.164Z,31.40
2022-09-22T15:26:30.014Z,31.40
2022-09-22T15:28:59.108Z,31.30
2022-09-22T15:31:29.991Z,31.20
2022-09-22T15:34:00.335Z,31.20
2022-09-22T15:36:30.733Z,31.10
2022-09-22T15:39:06.893Z,31.00
2022-09-22T15:41:35.081Z,30.90
2022-09-22T15:44:03.570Z,30.90
2022-09-22T15:47:52.486Z,30.70
2022-09-22T15:50:30.546Z,30.50
2022-09-22T15:52:57.877Z,30.30
2022-09-22T15:55:25.351Z,30.10
2022-09-22T15:58:49.396Z,29.90
2022-09-22T16:01:17.728Z,29.60
2022-09-22T16:03:45.582Z,29.20
2022-09-22T16:06:16.656Z,28.80
2022-09-22T16:08:51.570Z,28.40
2022-09-22T16:11:30.948Z,28.00
2022-09-22T16:14:03.751Z,27.60
2022-09-22T16:16:34.084Z,27.30
2022-09-22T16:19:02.033Z,27.00
2022-09-22T16:21:35.455Z,26.70
2022-09-22T16:24:09.822Z,26.50
2022-09-22T16:26:42.173Z,26.20
2022-09-22T16:29:09.566Z,26.00
2022-09-22T16:31:37.542Z,25.80
2022-09-22T16:34:06.994Z,25.70
2022-09-22T16:36:36.578Z,25.50
2022-09-22T16:39:22.970Z,25.30
2022-09-22T16:41:50.104Z,25.10
2022-09-22T16:44:17.301Z,24.90
2022-09-22T16:46:44.707Z,24.80
2022-09-22T16:49:16.333Z,24.60
2022-09-22T16:51:48.968Z,24.40
2022-09-22T16:54:17.894Z,24.20
2022-09-22T16:56:49.080Z,24.00
2022-09-22T16:59:27.810Z,23.90
2022-09-22T17:01:55.110Z,23.70
2022-09-22T17:04:22.622Z,23.50
2022-09-22T17:06:49.931Z,23.40
2022-09-22T17:09:18.474Z,23.20
2022-09-22T17:11:49.313Z,23.10
2022-09-22T17:14:21.578Z,23.00
2022-09-22T17:16:52.508Z,22.80
2022-09-22T17:19:28.187Z,22.70
2022-09-22T17:21:57.032Z,22.50
2022-09-22T17:24:26.630Z,22.40
2022-09-22T17:26:57.139Z,22.20
2022-09-22T17:29:30.010Z,22.10
2022-09-22T17:32:02.899Z,21.90
2022-09-22T17:34:33.208Z,21.70
2022-09-22T17:37:01.960Z,21.60
2022-09-22T17:39:31.966Z,21.40
2022-09-22T17:41:59.384Z,21.20
2022-09-22T17:44:29.009Z,21.10
2022-09-22T17:47:15.387Z,20.90
2022-09-22T17:50:01.194Z,20.70
2022-09-22T17:52:28.649Z,20.50
2022-09-22T17:55:21.070Z,20.40
2022-09-22T17:57:48.385Z,20.20
2022-09-22T18:00:21.297Z,20.00
2022-09-22T18:02:59.781Z,19.90
2022-09-22T18:05:28.680Z,19.70
2022-09-22T18:08:09.795Z,19.50
2022-09-22T18:10:37.827Z,19.40
2022-09-22T18:13:05.890Z,19.30
2022-09-22T18:15:33.103Z,19.10
2022-09-22T18:18:06.702Z,19.00
2022-09-22T18:20:35.118Z,18.80
2022-09-22T18:23:02.586Z,18.70
2022-09-22T18:25:30.585Z,18.60
2022-09-22T18:28:01.725Z,18.50
2022-09-22T18:30:29.021Z,18.40
2022-09-22T18:32:56.435Z,18.20
2022-09-22T18:35:31.141Z,18.10
2022-09-22T18:38:01.698Z,18.00
2022-09-22T18:40:30.119Z,17.90
2022-09-22T18:42:57.810Z,17.80
2022-09-22T18:45:26.831Z,17.70
2022-09-22T18:48:05.507Z,17.60
2022-09-22T18:50:35.047Z,17.50
2022-09-22T18:53:02.356Z,17.50
2022-09-22T18:55:31.071Z,17.40
2022-09-22T18:57:58.324Z,17.30
2022-09-22T19:00:28.310Z,17.20
2022-09-22T19:02:55.595Z,17.10
2022-09-22T19:05:22.949Z,17.00
2022-09-22T19:07:50.591Z,17.00
2022-09-22T19:10:23.522Z,16.90
2022-09-22T19:12:51.106Z,16.80
2022-09-22T19:15:19.556Z,16.80
2022-09-22T19:17:49.955Z,16.70
2022-09-22T19:20:23.032Z,16.60
2022-09-22T19:22:52.592Z,16.50
2022-09-22T19:25:21.888Z,16.50
2022-09-22T19:27:52.820Z,16.40
2022-09-22T19:30:23.311Z,16.40
2022-09-22T19:32:53.078Z,16.30
2022-09-22T19:35:21.414Z,16.20
2022-09-22T19:37:48.860Z,16.20
2022-09-22T19:40:19.089Z,16.10
2022-09-22T19:42:50.017Z,16.00
2022-09-22T19:45:17.479Z,16.00
2022-09-22T19:47:44.558Z,16.00
2022-09-22T19:50:11.715Z,15.90
2022-09-22T19:52:39.559Z,15.80
2022-09-22T19:55:11.497Z,15.80
2022-09-22T19:57:41.607Z,15.80
2022-09-22T20:00:25.951Z,15.70
2022-09-22T20:02:58.594Z,15.70
2022-09-22T20:05:34.428Z,15.60
2022-09-22T20:08:01.683Z,15.60
2022-09-22T20:10:29.999Z,15.50
2022-09-22T20:12:58.296Z,15.50
2022-09-22T20:15:27.178Z,15.40
2022-09-22T20:17:55.426Z,15.40
2022-09-22T20:20:25.564Z,15.40
2022-09-22T20:23:04.226Z,15.30
2022-09-22T20:25:37.040Z,15.30
2022-09-22T20:28:10.129Z,15.20
2022-09-22T20:30:38.524Z,15.20
2022-09-22T20:33:06.537Z,15.20
2022-09-22T20:35:36.503Z,15.20
2022-09-22T20:38:04.643Z,15.10
2022-09-22T20:40:32.026Z,15.10
2022-09-22T20:42:59.227Z,15.00
2022-09-22T20:45:27.358Z,15.00
2022-09-22T20:47:56.189Z,15.00
2022-09-22T20:50:23.807Z,14.90
2022-09-22T20:52:50.976Z,14.90
2022-09-22T20:55:18.714Z,14.90
2022-09-22T20:57:45.918Z,14.80
2022-09-22T21:00:15.443Z,14.80
2022-09-22T21:02:42.777Z,14.70
2022-09-22T21:05:15.998Z,14.70
2022-09-22T21:07:43.349Z,14.70
2022-09-22T21:10:33.704Z,14.70
2022-09-22T21:13:01.296Z,14.70
2022-09-22T21:15:30.138Z,14.70
2022-09-22T21:17:57.839Z,14.70
2022-09-22T21:20:30.303Z,14.60
2022-09-22T21:22:57.457Z,14.60
2022-09-22T21:25:25.216Z,14.60
2022-09-22T21:27:52.477Z,14.60
2022-09-22T21:30:19.736Z,14.60
2022-09-22T21:32:46.883Z,14.60
2022-09-22T21:36:15.486Z,14.50
2022-09-22T21:38:44.973Z,14.50
2022-09-22T21:41:19.113Z,14.50
2022-09-22T21:43:50.370Z,14.50
2022-09-22T21:46:22.712Z,14.50
2022-09-22T21:48:50.593Z,14.40
2022-09-22T21:51:22.161Z,14.40
2022-09-22T21:53:53.214Z,14.40
2022-09-22T21:56:23.738Z,14.30
2022-09-22T21:58:55.594Z,14.30
2022-09-22T22:01:33.453Z,14.30
2022-09-22T22:04:02.097Z,14.20
2022-09-22T22:06:34.486Z,14.20
2022-09-22T22:09:11.341Z,14.10
2022-09-22T22:11:40.869Z,14.20
2022-09-22T22:14:13.128Z,14.10
2022-09-22T22:16:44.385Z,14.10
2022-09-22T22:19:15.358Z,14.00
2022-09-22T22:21:44.593Z,14.00
2022-09-22T22:24:26.364Z,14.00
2022-09-22T22:27:06.491Z,14.00
2022-09-22T22:29:35.060Z,13.90
2022-09-22T22:32:05.145Z,13.90
2022-09-22T22:34:32.933Z,13.90
2022-09-22T22:37:01.036Z,13.90
2022-09-22T22:39:28.490Z,13.90
2022-09-22T22:41:55.703Z,13.80
2022-09-22T22:44:23.111Z,13.80
2022-09-22T22:46:50.766Z,13.80
2022-09-22T22:49:18.024Z,13.80
2022-09-22T22:51:45.140Z,13.80
2022-09-22T22:54:13.465Z,13.80
2022-09-22T22:56:43.270Z,13.90
2022-09-22T22:59:12.315Z,13.90
2022-09-22T23:01:40.709Z,13.90
2022-09-22T23:04:11.363Z,14.00
2022-09-22T23:06:44.188Z,14.00
2022-09-22T23:09:17.478Z,14.00
2022-09-22T23:11:46.464Z,14.00
2022-09-22T23:14:16.305Z,14.00
2022-09-22T23:16:49.647Z,14.00
2022-09-22T23:19:18.907Z,14.00
2022-09-22T23:21:47.141Z,14.00
2022-09-22T23:24:19.168Z,14.00
2022-09-22T23:26:47.221Z,14.00
2022-09-22T23:29:14.785Z,14.00
2022-09-22T23:31:42.238Z,13.90
2022-09-22T23:34:09.337Z,13.90
2022-09-22T23:36:37.267Z,13.90
2022-09-22T23:39:04.789Z,13.90
2022-09-22T23:41:37.161Z,13.80
2022-09-22T23:44:07.088Z,13.80
2022-09-22T23:46:34.948Z,13.80
2022-09-22T23:49:02.556Z,13.70
2022-09-22T23:51:30.739Z,13.70
2022-09-22T23:53:58.622Z,13.70
2022-09-22T23:56:26.066Z,13.60
2022-09-22T23:58:53.621Z,13.60
